createdAt,value
2019-04-27T00:00:41.349Z,992.08
2019-04-27T00:01:45.363Z,992.07
2019-04-27T00:02:43.530Z,992.08
2019-04-27T00:03:42.868Z,992.02
2019-04-27T00:04:42.870Z,992.06
2019-04-27T00:05:41.262Z,992.11
2019-04-27T00:06:42.976Z,992.06
2019-04-27T00:07:43.955Z,992.05
2019-04-27T00:08:43.031Z,992.08
2019-04-27T00:09:50.067Z,992.12
2019-04-27T00:10:43.676Z,992.09
2019-04-27T00:11:42.141Z,992.01
2019-04-27T00:12:42.800Z,992.05
2019-04-27T00:13:42.197Z,992.03
2019-04-27T00:14:41.178Z,992.01
2019-04-27T00:15:41.159Z,992.07
2019-04-27T00:16:47.048Z,992.03
2019-04-27T00:17:48.552Z,992.03
2019-04-27T00:18:45.160Z,992.02
2019-04-27T00:19:41.113Z,991.99
2019-04-27T00:20:41.111Z,992.03
2019-04-27T00:21:41.103Z,992.04
2019-04-27T00:22:41.058Z,992.07
2019-04-27T00:23:41.078Z,992.01
2019-04-27T00:24:41.478Z,992.04
2019-04-27T00:25:41.060Z,992.01
2019-04-27T00:26:41.016Z,991.97
2019-04-27T00:27:41.019Z,991.91
2019-04-27T00:28:41.013Z,991.96
2019-04-27T00:29:42.814Z,991.95
2019-04-27T00:30:40.996Z,991.90
2019-04-27T00:31:40.998Z,991.89
2019-04-27T00:32:40.976Z,991.87
2019-04-27T00:33:40.949Z,991.90
2019-04-27T00:34:43.023Z,991.87
2019-04-27T00:35:40.945Z,991.88
2019-04-27T00:36:40.921Z,991.83
2019-04-27T00:37:42.604Z,991.86
2019-04-27T00:38:40.891Z,991.89
2019-04-27T00:39:40.977Z,991.82
2019-04-27T00:40:40.865Z,991.83
2019-04-27T00:41:40.874Z,991.89
2019-04-27T00:42:40.880Z,991.87
2019-04-27T00:43:40.845Z,991.89
2019-04-27T00:44:42.876Z,991.86
2019-04-27T00:45:40.827Z,991.82
2019-04-27T00:46:40.832Z,991.85
2019-04-27T00:47:53.800Z,991.92
2019-04-27T00:48:43.234Z,991.90
2019-04-27T00:49:40.767Z,991.87
2019-04-27T00:50:40.761Z,991.84
2019-04-27T00:51:40.767Z,991.81
2019-04-27T00:52:40.759Z,991.83
2019-04-27T00:53:41.096Z,991.76
2019-04-27T00:54:40.728Z,991.75
2019-04-27T00:55:40.712Z,991.79
2019-04-27T00:56:40.704Z,991.79
2019-04-27T00:57:40.712Z,991.75
2019-04-27T00:58:41.148Z,991.72
2019-04-27T00:59:40.671Z,991.70
2019-04-27T01:00:40.643Z,991.70
2019-04-27T01:01:40.652Z,991.66
2019-04-27T01:02:40.620Z,991.67
2019-04-27T01:03:42.974Z,991.65
2019-04-27T01:04:40.620Z,991.63
2019-04-27T01:05:40.616Z,991.61
2019-04-27T01:06:40.628Z,991.58
2019-04-27T01:07:40.595Z,991.60
2019-04-27T01:08:40.580Z,991.63
2019-04-27T01:09:40.601Z,991.62
2019-04-27T01:10:40.560Z,991.61
2019-04-27T01:11:40.540Z,991.51
2019-04-27T01:12:40.547Z,991.58
2019-04-27T01:13:40.526Z,991.61
2019-04-27T01:14:40.635Z,991.58
2019-04-27T01:15:40.481Z,991.54
2019-04-27T01:16:40.502Z,991.47
2019-04-27T01:17:40.456Z,991.50
2019-04-27T01:18:40.468Z,991.45
2019-04-27T01:19:40.710Z,991.49
2019-04-27T01:20:40.443Z,991.40
2019-04-27T01:21:40.440Z,991.41
2019-04-27T01:22:40.425Z,991.41
2019-04-27T01:23:40.416Z,991.43
2019-04-27T01:24:40.763Z,991.39
2019-04-27T01:25:40.425Z,991.39
2019-04-27T01:26:40.381Z,991.45
2019-04-27T01:27:40.376Z,991.42
2019-04-27T01:28:40.342Z,991.39
2019-04-27T01:29:41.427Z,991.43
2019-04-27T01:30:40.346Z,991.38
2019-04-27T01:31:40.326Z,991.39
2019-04-27T01:32:40.314Z,991.37
2019-04-27T01:33:40.302Z,991.35
2019-04-27T01:34:40.782Z,991.33
2019-04-27T01:35:40.305Z,991.34
2019-04-27T01:36:40.279Z,991.29
2019-04-27T01:37:40.264Z,991.26
2019-04-27T01:38:41.016Z,991.29
2019-04-27T01:39:40.276Z,991.33
2019-04-27T01:40:40.249Z,991.26
2019-04-27T01:41:40.211Z,991.25
2019-04-27T01:42:40.198Z,991.25
2019-04-27T01:43:40.207Z,991.23
2019-04-27T01:44:40.213Z,991.23
2019-04-27T01:45:40.191Z,991.20
2019-04-27T01:46:40.162Z,991.17
2019-04-27T01:47:40.165Z,991.22
2019-04-27T01:48:40.146Z,991.22
2019-04-27T01:49:40.369Z,991.22
2019-04-27T01:50:40.110Z,991.25
2019-04-27T01:51:40.124Z,991.28
2019-04-27T01:52:40.103Z,991.29
2019-04-27T01:53:40.074Z,991.21
2019-04-27T01:54:41.130Z,991.31
2019-04-27T01:55:40.812Z,991.21
2019-04-27T01:56:40.086Z,991.19
2019-04-27T01:57:40.060Z,991.23
2019-04-27T01:58:40.039Z,991.19
2019-04-27T01:59:40.425Z,991.23
2019-04-27T02:00:40.006Z,991.18
2019-04-27T02:01:40.014Z,991.22
2019-04-27T02:02:39.989Z,991.21
2019-04-27T02:03:39.995Z,991.20
2019-04-27T02:04:40.439Z,991.15
2019-04-27T02:05:39.959Z,991.16
2019-04-27T02:06:39.957Z,991.08
2019-04-27T02:07:39.943Z,991.10
2019-04-27T02:08:40.391Z,991.15
2019-04-27T02:09:40.424Z,991.11
2019-04-27T02:10:39.892Z,991.09
2019-04-27T02:11:39.884Z,991.14
2019-04-27T02:12:39.891Z,991.14
2019-04-27T02:13:39.882Z,991.07
2019-04-27T02:14:39.949Z,991.11
2019-04-27T02:15:39.861Z,991.09
2019-04-27T02:16:39.844Z,991.06
2019-04-27T02:17:39.832Z,991.05
2019-04-27T02:18:40.173Z,991.07
2019-04-27T02:19:39.924Z,991.02
2019-04-27T02:20:39.821Z,991.04
2019-04-27T02:21:39.786Z,991.05
2019-04-27T02:22:39.784Z,991.02
2019-04-27T02:23:39.786Z,991.02
2019-04-27T02:24:39.763Z,991.07
2019-04-27T02:25:40.023Z,991.03
2019-04-27T02:26:39.967Z,990.98
2019-04-27T02:27:39.715Z,990.98
2019-04-27T02:28:39.724Z,991.02
2019-04-27T02:29:39.718Z,991.06
2019-04-27T02:30:40.962Z,991.05
2019-04-27T02:31:40.327Z,991.01
2019-04-27T02:32:39.876Z,990.97
2019-04-27T02:33:40.359Z,991.05
2019-04-27T02:34:39.937Z,990.97
2019-04-27T02:35:41.987Z,990.99
2019-04-27T02:36:39.632Z,990.98
2019-04-27T02:37:40.375Z,990.98
2019-04-27T02:38:40.558Z,990.95
2019-04-27T02:39:39.984Z,990.97
2019-04-27T02:40:42.664Z,990.92
2019-04-27T02:41:40.117Z,990.84
2019-04-27T02:42:42.114Z,990.87
2019-04-27T02:43:40.014Z,990.85
2019-04-27T02:44:40.441Z,990.81
2019-04-27T02:45:40.344Z,990.86
2019-04-27T02:46:39.756Z,990.85
2019-04-27T02:47:40.821Z,990.73
2019-04-27T02:48:52.988Z,990.77
2019-04-27T02:49:40.827Z,990.84
2019-04-27T02:50:40.058Z,990.74
2019-04-27T02:51:40.614Z,990.76
2019-04-27T02:52:40.426Z,990.78
2019-04-27T02:53:39.460Z,990.71
2019-04-27T02:54:40.089Z,990.79
2019-04-27T02:55:39.929Z,990.82
2019-04-27T02:56:40.479Z,990.83
2019-04-27T02:57:39.977Z,990.81
2019-04-27T02:58:40.618Z,990.77
2019-04-27T02:59:40.039Z,990.76
2019-04-27T03:00:39.978Z,990.73
2019-04-27T03:01:46.270Z,990.76
2019-04-27T03:02:40.463Z,990.71
2019-04-27T03:03:41.144Z,990.68
2019-04-27T03:04:40.045Z,990.71
2019-04-27T03:05:40.055Z,990.68
2019-04-27T03:06:40.040Z,990.62
2019-04-27T03:07:39.902Z,990.63
2019-04-27T03:08:42.236Z,990.59
2019-04-27T03:09:39.697Z,990.56
2019-04-27T03:10:40.139Z,990.58
2019-04-27T03:11:39.815Z,990.56
2019-04-27T03:12:42.008Z,990.52
2019-04-27T03:13:40.534Z,990.52
2019-04-27T03:14:40.429Z,990.54
2019-04-27T03:15:40.367Z,990.56
2019-04-27T03:16:39.741Z,990.47
2019-04-27T03:17:39.661Z,990.47
2019-04-27T03:18:40.333Z,990.48
2019-04-27T03:19:40.060Z,990.45
2019-04-27T03:20:40.291Z,990.42
2019-04-27T03:21:39.647Z,990.42
2019-04-27T03:22:39.815Z,990.41
2019-04-27T03:23:41.193Z,990.39
2019-04-27T03:24:39.451Z,990.38
2019-04-27T03:25:40.080Z,990.30
2019-04-27T03:26:41.782Z,990.34
2019-04-27T03:27:40.530Z,990.41
2019-04-27T03:28:40.116Z,990.30
2019-04-27T03:29:39.091Z,990.27
2019-04-27T03:30:42.346Z,990.22
2019-04-27T03:31:46.263Z,990.21
2019-04-27T03:32:42.925Z,990.10
2019-04-27T03:33:42.763Z,990.15
2019-04-27T03:34:41.905Z,990.06
2019-04-27T03:35:42.985Z,990.04
2019-04-27T03:36:39.602Z,989.99
2019-04-27T03:37:40.412Z,989.95
2019-04-27T03:38:39.710Z,989.92
2019-04-27T03:39:39.685Z,989.90
2019-04-27T03:40:40.381Z,989.97
2019-04-27T03:41:41.157Z,989.93
2019-04-27T03:42:40.234Z,989.98
2019-04-27T03:43:40.249Z,989.97
2019-04-27T03:44:39.774Z,989.89
2019-04-27T03:45:40.027Z,989.91
2019-04-27T03:46:39.811Z,989.85
2019-04-27T03:47:40.583Z,989.81
2019-04-27T03:48:40.819Z,989.83
2019-04-27T03:49:41.512Z,989.89
2019-04-27T03:50:39.894Z,989.87
2019-04-27T03:51:40.309Z,989.87
2019-04-27T03:52:39.726Z,989.89
2019-04-27T03:53:39.613Z,989.90
2019-04-27T03:54:40.083Z,989.87
2019-04-27T03:55:39.822Z,989.88
2019-04-27T03:56:39.573Z,989.88
2019-04-27T03:57:40.301Z,989.83
2019-04-27T03:58:39.601Z,989.88
2019-04-27T03:59:40.541Z,989.89
2019-04-27T04:00:39.894Z,989.91
2019-04-27T04:01:39.725Z,989.90
2019-04-27T04:02:40.540Z,989.90
2019-04-27T04:03:39.334Z,989.90
2019-04-27T04:04:40.521Z,989.93
2019-04-27T04:05:39.791Z,989.93
2019-04-27T04:06:39.904Z,989.95
2019-04-27T04:07:40.218Z,989.91
2019-04-27T04:08:39.664Z,989.93
2019-04-27T04:09:40.138Z,989.95
2019-04-27T04:10:39.112Z,989.96
2019-04-27T04:11:39.533Z,989.87
2019-04-27T04:12:39.997Z,989.82
2019-04-27T04:13:39.662Z,989.84
2019-04-27T04:14:42.454Z,989.81
2019-04-27T04:15:39.869Z,989.89
2019-04-27T04:16:39.450Z,989.84
2019-04-27T04:17:40.340Z,989.84
2019-04-27T04:18:39.661Z,989.81
2019-04-27T04:19:48.813Z,989.78
2019-04-27T04:20:40.394Z,989.89
2019-04-27T04:21:40.029Z,989.73
2019-04-27T04:22:40.333Z,989.78
2019-04-27T04:23:40.242Z,989.80
2019-04-27T04:24:39.766Z,989.82
2019-04-27T04:25:41.012Z,989.74
2019-04-27T04:26:40.261Z,989.80
2019-04-27T04:27:42.344Z,989.80
2019-04-27T04:28:39.653Z,989.79
2019-04-27T04:29:39.466Z,989.74
2019-04-27T04:30:40.258Z,989.76
2019-04-27T04:31:40.344Z,989.69
2019-04-27T04:32:39.505Z,989.75
2019-04-27T04:33:40.329Z,989.67
2019-04-27T04:34:39.928Z,989.70
2019-04-27T04:35:39.743Z,989.73
2019-04-27T04:36:39.365Z,989.72
2019-04-27T04:37:39.422Z,989.60
2019-04-27T04:38:40.188Z,989.59
2019-04-27T04:39:40.268Z,989.64
2019-04-27T04:40:40.094Z,989.54
2019-04-27T04:41:40.556Z,989.55
2019-04-27T04:42:39.693Z,989.58
2019-04-27T04:43:39.781Z,989.52
2019-04-27T04:44:40.032Z,989.52
2019-04-27T04:45:39.346Z,989.61
2019-04-27T04:46:39.913Z,989.55
2019-04-27T04:47:40.771Z,989.52
2019-04-27T04:48:40.294Z,989.57
2019-04-27T04:49:39.781Z,989.51
2019-04-27T04:50:39.783Z,989.51
2019-04-27T04:51:40.171Z,989.55
2019-04-27T04:52:39.726Z,989.60
2019-04-27T04:53:40.004Z,989.49
2019-04-27T04:54:40.702Z,989.54
2019-04-27T04:55:39.250Z,989.50
2019-04-27T04:56:39.275Z,989.59
2019-04-27T04:57:40.054Z,989.56
2019-04-27T04:58:39.270Z,989.50
2019-04-27T04:59:38.987Z,989.52
2019-04-27T05:00:40.062Z,989.60
2019-04-27T05:01:39.945Z,989.47
2019-04-27T05:02:39.615Z,989.60
2019-04-27T05:03:38.890Z,989.49
2019-04-27T05:04:39.070Z,989.50
2019-04-27T05:05:41.063Z,989.59
2019-04-27T05:06:38.993Z,989.60
2019-04-27T05:07:38.775Z,989.55
2019-04-27T05:08:39.374Z,989.54
2019-04-27T05:09:39.529Z,989.53
2019-04-27T05:10:39.536Z,989.52
2019-04-27T05:11:39.542Z,989.56
2019-04-27T05:12:38.767Z,989.62
2019-04-27T05:13:39.363Z,989.56
2019-04-27T05:14:38.886Z,989.55
2019-04-27T05:15:39.452Z,989.57
2019-04-27T05:16:39.073Z,989.51
2019-04-27T05:17:39.878Z,989.58
2019-04-27T05:18:39.405Z,989.54
2019-04-27T05:19:38.925Z,989.60
2019-04-27T05:20:39.526Z,989.60
2019-04-27T05:21:38.944Z,989.57
2019-04-27T05:22:39.334Z,989.57
2019-04-27T05:23:38.791Z,989.68
2019-04-27T05:24:39.360Z,989.66
2019-04-27T05:25:39.009Z,989.68
2019-04-27T05:26:39.576Z,989.65
2019-04-27T05:27:38.969Z,989.56
2019-04-27T05:28:38.366Z,989.61
2019-04-27T05:29:38.929Z,989.56
2019-04-27T05:30:39.058Z,989.61
2019-04-27T05:31:38.871Z,989.57
2019-04-27T05:32:39.315Z,989.63
2019-04-27T05:33:38.888Z,989.60
2019-04-27T05:34:39.351Z,989.54
2019-04-27T05:35:40.621Z,989.58
2019-04-27T05:36:41.678Z,989.60
2019-04-27T05:37:39.060Z,989.56
2019-04-27T05:38:39.911Z,989.57
2019-04-27T05:39:39.026Z,989.55
2019-04-27T05:40:39.660Z,989.54
2019-04-27T05:41:39.310Z,989.55
2019-04-27T05:42:39.377Z,989.55
2019-04-27T05:43:38.994Z,989.56
2019-04-27T05:44:41.400Z,989.52
2019-04-27T05:45:39.636Z,989.52
2019-04-27T05:46:39.515Z,989.53
2019-04-27T05:47:39.165Z,989.50
2019-04-27T05:48:38.912Z,989.54
2019-04-27T05:49:41.007Z,989.50
2019-04-27T05:50:43.485Z,989.51
2019-04-27T05:51:40.536Z,989.54
2019-04-27T05:52:38.658Z,989.52
2019-04-27T05:53:39.519Z,989.45
2019-04-27T05:54:38.549Z,989.55
2019-04-27T05:55:39.223Z,989.48
2019-04-27T05:56:39.069Z,989.47
2019-04-27T05:57:39.057Z,989.43
2019-04-27T05:58:39.076Z,989.51
2019-04-27T05:59:37.447Z,989.52
2019-04-27T06:00:39.282Z,989.41
2019-04-27T06:01:38.949Z,989.44
2019-04-27T06:02:37.406Z,989.43
2019-04-27T06:03:39.408Z,989.40
2019-04-27T06:04:39.346Z,989.40
2019-04-27T06:05:39.025Z,989.38
2019-04-27T06:06:37.393Z,989.37
2019-04-27T06:07:37.358Z,989.41
2019-04-27T06:08:39.263Z,989.33
2019-04-27T06:09:39.028Z,989.38
2019-04-27T06:10:38.656Z,989.41
2019-04-27T06:11:37.321Z,989.39
2019-04-27T06:12:37.303Z,989.31
2019-04-27T06:13:39.076Z,989.36
2019-04-27T06:14:37.274Z,989.45
2019-04-27T06:15:38.851Z,989.37
2019-04-27T06:16:39.213Z,989.41
2019-04-27T06:17:38.725Z,989.41
2019-04-27T06:18:39.225Z,989.39
2019-04-27T06:19:38.983Z,989.32
2019-04-27T06:20:50.356Z,989.36
2019-04-27T06:21:39.866Z,989.40
2019-04-27T06:22:38.902Z,989.42
2019-04-27T06:23:39.029Z,989.41
2019-04-27T06:24:37.178Z,989.39
2019-04-27T06:25:39.230Z,989.35
2019-04-27T06:26:37.140Z,989.40
2019-04-27T06:27:37.149Z,989.41
2019-04-27T06:28:39.599Z,989.37
2019-04-27T06:29:39.212Z,989.44
2019-04-27T06:30:39.038Z,989.38
2019-04-27T06:31:37.091Z,989.35
2019-04-27T06:32:37.087Z,989.46
2019-04-27T06:33:38.982Z,989.48
2019-04-27T06:34:38.935Z,989.49
2019-04-27T06:35:37.050Z,989.41
2019-04-27T06:36:38.582Z,989.40
2019-04-27T06:37:38.870Z,989.43
2019-04-27T06:38:37.120Z,989.36
2019-04-27T06:39:38.661Z,989.42
2019-04-27T06:40:36.998Z,989.38
2019-04-27T06:41:36.985Z,989.42
2019-04-27T06:42:36.986Z,989.36
2019-04-27T06:43:36.956Z,989.41
2019-04-27T06:44:36.996Z,989.50
2019-04-27T06:45:38.637Z,989.34
2019-04-27T06:46:38.544Z,989.45
2019-04-27T06:47:39.600Z,989.37
2019-04-27T06:48:36.935Z,989.37
2019-04-27T06:49:37.290Z,989.34
2019-04-27T06:50:36.885Z,989.32
2019-04-27T06:51:36.890Z,989.33
2019-04-27T06:52:36.871Z,989.27
2019-04-27T06:53:36.847Z,989.37
2019-04-27T06:54:38.855Z,989.33
2019-04-27T06:55:36.854Z,989.29
2019-04-27T06:56:38.774Z,989.40
2019-04-27T06:57:36.815Z,989.34
2019-04-27T06:58:36.814Z,989.30
2019-04-27T06:59:37.300Z,989.34
2019-04-27T07:00:36.786Z,989.36
2019-04-27T07:01:36.764Z,989.37
2019-04-27T07:02:36.751Z,989.33
2019-04-27T07:03:36.756Z,989.37
2019-04-27T07:04:36.804Z,989.28
2019-04-27T07:05:36.725Z,989.34
2019-04-27T07:06:36.738Z,989.26
2019-04-27T07:07:36.701Z,989.34
2019-04-27T07:08:36.713Z,989.37
2019-04-27T07:09:36.865Z,989.38
2019-04-27T07:10:36.660Z,989.35
2019-04-27T07:11:36.662Z,989.33
2019-04-27T07:12:38.684Z,989.31
2019-04-27T07:13:36.637Z,989.35
2019-04-27T07:14:50.323Z,989.36
2019-04-27T07:15:38.750Z,989.32
2019-04-27T07:16:36.637Z,989.36
2019-04-27T07:17:36.591Z,989.33
2019-04-27T07:18:36.597Z,989.31
2019-04-27T07:19:36.959Z,989.30
2019-04-27T07:20:36.587Z,989.36
2019-04-27T07:21:36.552Z,989.34
2019-04-27T07:22:36.546Z,989.35
2019-04-27T07:23:36.542Z,989.36
2019-04-27T07:24:36.980Z,989.37
2019-04-27T07:25:36.515Z,989.41
2019-04-27T07:26:36.488Z,989.49
2019-04-27T07:27:36.466Z,989.52
2019-04-27T07:28:36.490Z,989.61
2019-04-27T07:29:36.497Z,989.57
2019-04-27T07:30:36.447Z,989.53
2019-04-27T07:31:36.457Z,989.54
2019-04-27T07:32:36.496Z,989.55
2019-04-27T07:33:36.407Z,989.55
2019-04-27T07:34:36.418Z,989.52
2019-04-27T07:35:36.392Z,989.50
2019-04-27T07:36:36.383Z,989.45
2019-04-27T07:37:36.506Z,989.49
2019-04-27T07:38:36.341Z,989.50
2019-04-27T07:39:36.348Z,989.47
2019-04-27T07:40:39.296Z,989.53
2019-04-27T07:41:38.746Z,989.54
2019-04-27T07:42:36.314Z,989.54
2019-04-27T07:43:36.555Z,989.51
2019-04-27T07:44:36.323Z,989.49
2019-04-27T07:45:36.289Z,989.56
2019-04-27T07:46:36.266Z,989.58
2019-04-27T07:47:36.291Z,989.54
2019-04-27T07:48:36.610Z,989.51
2019-04-27T07:49:36.259Z,989.46
2019-04-27T07:50:36.258Z,989.50
2019-04-27T07:51:36.223Z,989.49
2019-04-27T07:52:38.037Z,989.48
2019-04-27T07:53:36.609Z,989.44
2019-04-27T07:54:36.200Z,989.33
2019-04-27T07:55:36.197Z,989.40
2019-04-27T07:56:36.193Z,989.35
2019-04-27T07:57:36.186Z,989.37
2019-04-27T07:58:36.611Z,989.27
2019-04-27T07:59:36.133Z,989.29
2019-04-27T08:00:36.116Z,989.25
2019-04-27T08:01:36.123Z,989.18
2019-04-27T08:02:36.145Z,989.22
2019-04-27T08:03:36.627Z,989.14
2019-04-27T08:04:36.079Z,989.17
2019-04-27T08:05:36.094Z,989.16
2019-04-27T08:06:36.064Z,989.13
2019-04-27T08:07:36.038Z,989.17
2019-04-27T08:08:36.125Z,989.21
2019-04-27T08:09:36.030Z,989.15
2019-04-27T08:10:36.015Z,989.21
2019-04-27T08:11:36.031Z,989.15
2019-04-27T08:12:36.015Z,989.21
2019-04-27T08:13:36.099Z,989.09
2019-04-27T08:14:35.983Z,989.08
2019-04-27T08:15:35.980Z,989.02
2019-04-27T08:16:35.939Z,989.06
2019-04-27T08:17:35.961Z,988.97
2019-04-27T08:18:36.183Z,989.02
2019-04-27T08:19:35.934Z,988.98
2019-04-27T08:20:35.950Z,988.94
2019-04-27T08:21:43.343Z,989.02
2019-04-27T08:22:38.779Z,988.92
2019-04-27T08:23:36.270Z,988.97
2019-04-27T08:24:35.870Z,989.04
2019-04-27T08:25:35.884Z,989.02
2019-04-27T08:26:35.856Z,989.07
2019-04-27T08:27:35.845Z,988.95
2019-04-27T08:28:36.250Z,989.07
2019-04-27T08:29:35.837Z,989.08
2019-04-27T08:30:35.825Z,988.96
2019-04-27T08:31:35.785Z,989.13
2019-04-27T08:32:35.765Z,989.13
2019-04-27T08:33:36.243Z,989.20
2019-04-27T08:34:35.769Z,989.11
2019-04-27T08:35:35.764Z,989.18
2019-04-27T08:36:35.750Z,989.13
2019-04-27T08:37:35.732Z,989.12
2019-04-27T08:38:35.746Z,989.03
2019-04-27T08:39:35.700Z,989.05
2019-04-27T08:40:35.695Z,989.10
2019-04-27T08:41:35.660Z,989.14
2019-04-27T08:42:35.705Z,989.13
2019-04-27T08:43:35.741Z,989.16
2019-04-27T08:44:35.631Z,989.19
2019-04-27T08:45:35.635Z,989.07
2019-04-27T08:46:35.650Z,989.14
2019-04-27T08:47:35.637Z,989.11
2019-04-27T08:48:37.018Z,989.11
2019-04-27T08:49:35.591Z,989.10
2019-04-27T08:50:37.787Z,989.13
2019-04-27T08:51:35.586Z,989.14
2019-04-27T08:52:35.566Z,989.04
2019-04-27T08:53:35.942Z,988.98
2019-04-27T08:54:35.539Z,988.96
2019-04-27T08:55:35.531Z,988.96
2019-04-27T08:56:35.515Z,988.91
2019-04-27T08:57:35.504Z,988.97
2019-04-27T08:58:35.932Z,988.99
2019-04-27T08:59:35.495Z,988.93
2019-04-27T09:00:35.485Z,988.88
2019-04-27T09:01:35.473Z,988.90
2019-04-27T09:02:44.536Z,988.92
2019-04-27T09:03:36.946Z,988.93
2019-04-27T09:04:35.415Z,988.97
2019-04-27T09:05:35.416Z,989.01
2019-04-27T09:06:37.483Z,988.82
2019-04-27T09:07:35.434Z,988.88
2019-04-27T09:08:35.432Z,988.97
2019-04-27T09:09:35.401Z,988.93
2019-04-27T09:10:35.370Z,988.97
2019-04-27T09:11:35.367Z,988.92
2019-04-27T09:12:35.349Z,988.95
2019-04-27T09:13:36.222Z,988.90
2019-04-27T09:14:35.330Z,988.90
2019-04-27T09:15:35.310Z,988.87
2019-04-27T09:16:35.304Z,988.95
2019-04-27T09:17:35.294Z,988.94
2019-04-27T09:18:35.539Z,988.89
2019-04-27T09:19:35.270Z,988.83
2019-04-27T09:20:35.269Z,988.85
2019-04-27T09:21:35.225Z,988.94
2019-04-27T09:22:35.234Z,988.88
2019-04-27T09:23:35.603Z,988.89
2019-04-27T09:24:35.193Z,988.87
2019-04-27T09:25:35.200Z,988.84
2019-04-27T09:26:35.188Z,988.87
2019-04-27T09:27:35.226Z,988.92
2019-04-27T09:28:35.629Z,988.88
2019-04-27T09:29:35.212Z,988.83
2019-04-27T09:30:35.198Z,988.81
2019-04-27T09:31:35.155Z,988.93
2019-04-27T09:32:35.129Z,988.81
2019-04-27T09:33:35.619Z,988.76
2019-04-27T09:34:36.643Z,988.81
2019-04-27T09:35:35.603Z,988.77
2019-04-27T09:36:35.083Z,988.85
2019-04-27T09:37:36.603Z,988.83
2019-04-27T09:38:35.804Z,988.77
2019-04-27T09:39:35.867Z,988.82
2019-04-27T09:40:36.064Z,988.83
2019-04-27T09:41:36.621Z,988.73
2019-04-27T09:42:38.148Z,988.70
2019-04-27T09:43:36.632Z,988.78
2019-04-27T09:44:36.909Z,988.75
2019-04-27T09:45:35.039Z,988.81
2019-04-27T09:46:36.389Z,988.85
2019-04-27T09:47:38.833Z,988.77
2019-04-27T09:48:36.190Z,988.80
2019-04-27T09:49:36.834Z,988.84
2019-04-27T09:50:36.052Z,988.88
2019-04-27T09:51:36.323Z,988.83
2019-04-27T09:52:35.849Z,988.89
2019-04-27T09:53:36.393Z,988.88
2019-04-27T09:54:36.587Z,988.83
2019-04-27T09:55:36.714Z,988.86
2019-04-27T09:56:36.357Z,988.85
2019-04-27T09:57:36.410Z,988.80
2019-04-27T09:58:36.522Z,988.82
2019-04-27T09:59:35.215Z,988.78
2019-04-27T10:00:36.386Z,988.83
2019-04-27T10:01:36.113Z,988.80
2019-04-27T10:02:36.505Z,988.76
2019-04-27T10:03:36.169Z,988.84
2019-04-27T10:04:35.619Z,988.83
2019-04-27T10:05:36.563Z,988.81
2019-04-27T10:06:36.332Z,988.82
2019-04-27T10:07:35.856Z,988.81
2019-04-27T10:08:36.567Z,988.77
2019-04-27T10:09:36.833Z,988.79
2019-04-27T10:10:34.738Z,988.77
2019-04-27T10:11:35.674Z,988.71
2019-04-27T10:12:36.883Z,988.72
2019-04-27T10:13:36.401Z,988.78
2019-04-27T10:14:34.739Z,988.75
2019-04-27T10:15:35.643Z,988.81
2019-04-27T10:16:36.484Z,988.86
2019-04-27T10:17:34.617Z,988.96
2019-04-27T10:18:34.613Z,989.09
2019-04-27T10:19:36.470Z,989.09
2019-04-27T10:20:38.453Z,989.14
2019-04-27T10:21:36.546Z,989.07
2019-04-27T10:22:41.208Z,989.11
2019-04-27T10:23:36.185Z,989.05
2019-04-27T10:24:35.850Z,989.06
2019-04-27T10:25:35.501Z,989.09
2019-04-27T10:26:36.119Z,989.19
2019-04-27T10:27:35.895Z,989.24
2019-04-27T10:28:35.458Z,989.34
2019-04-27T10:29:35.576Z,989.45
2019-04-27T10:30:35.831Z,989.32
2019-04-27T10:31:34.473Z,989.40
2019-04-27T10:32:36.126Z,989.33
2019-04-27T10:33:35.862Z,989.32
2019-04-27T10:34:34.953Z,989.34
2019-04-27T10:35:36.194Z,989.33
2019-04-27T10:36:35.649Z,989.36
2019-04-27T10:37:34.459Z,989.34
2019-04-27T10:38:35.950Z,989.39
2019-04-27T10:39:36.089Z,989.34
2019-04-27T10:40:34.908Z,989.38
2019-04-27T10:41:34.376Z,989.40
2019-04-27T10:42:35.862Z,989.36
2019-04-27T10:43:34.356Z,989.39
2019-04-27T10:44:35.562Z,989.38
2019-04-27T10:45:35.788Z,989.35
2019-04-27T10:46:34.338Z,989.38
2019-04-27T10:47:36.011Z,989.43
2019-04-27T10:48:34.299Z,989.39
2019-04-27T10:49:34.274Z,989.34
2019-04-27T10:50:36.072Z,989.36
2019-04-27T10:51:34.298Z,989.38
2019-04-27T10:52:34.261Z,989.38
2019-04-27T10:53:35.639Z,989.37
2019-04-27T10:54:34.263Z,989.40
2019-04-27T10:55:36.193Z,989.46
2019-04-27T10:56:35.952Z,989.34
2019-04-27T10:57:34.191Z,989.44
2019-04-27T10:58:35.552Z,989.42
2019-04-27T10:59:35.980Z,989.40
2019-04-27T11:00:34.548Z,989.45
2019-04-27T11:01:35.822Z,989.38
2019-04-27T11:02:34.212Z,989.41
2019-04-27T11:03:35.671Z,989.45
2019-04-27T11:04:35.918Z,989.41
2019-04-27T11:05:35.772Z,989.47
2019-04-27T11:06:34.108Z,989.49
2019-04-27T11:07:34.133Z,989.49
2019-04-27T11:08:34.117Z,989.50
2019-04-27T11:09:34.109Z,989.49
2019-04-27T11:10:36.074Z,989.52
2019-04-27T11:11:34.049Z,989.55
2019-04-27T11:12:34.050Z,989.59
2019-04-27T11:13:35.870Z,989.64
2019-04-27T11:14:34.023Z,989.47
2019-04-27T11:15:34.088Z,989.57
2019-04-27T11:16:35.677Z,989.52
2019-04-27T11:17:33.991Z,989.48
2019-04-27T11:18:33.973Z,989.54
2019-04-27T11:19:35.660Z,989.54
2019-04-27T11:20:34.026Z,989.58
2019-04-27T11:21:33.925Z,989.52
2019-04-27T11:22:33.941Z,989.53
2019-04-27T11:23:35.846Z,989.45
2019-04-27T11:24:33.964Z,989.57
2019-04-27T11:25:34.129Z,989.57
2019-04-27T11:26:33.915Z,989.58
2019-04-27T11:27:33.886Z,989.56
2019-04-27T11:28:33.881Z,989.63
2019-04-27T11:29:33.858Z,989.56
2019-04-27T11:30:34.147Z,989.62
2019-04-27T11:31:33.858Z,989.64
2019-04-27T11:32:33.861Z,989.67
2019-04-27T11:33:33.800Z,989.67
2019-04-27T11:34:33.838Z,989.60
2019-04-27T11:35:35.650Z,989.67
2019-04-27T11:36:35.538Z,989.63
2019-04-27T11:37:35.637Z,989.62
2019-04-27T11:38:33.769Z,989.66
2019-04-27T11:39:33.746Z,989.68
2019-04-27T11:40:34.199Z,989.64
2019-04-27T11:41:33.732Z,989.58
2019-04-27T11:42:33.732Z,989.60
2019-04-27T11:43:33.702Z,989.59
2019-04-27T11:44:33.722Z,989.63
2019-04-27T11:45:34.197Z,989.60
2019-04-27T11:46:33.691Z,989.64
2019-04-27T11:47:33.705Z,989.66
2019-04-27T11:48:33.662Z,989.61
2019-04-27T11:49:33.666Z,989.61
2019-04-27T11:50:35.642Z,989.58
2019-04-27T11:51:33.611Z,989.52
2019-04-27T11:52:33.612Z,989.51
2019-04-27T11:53:33.631Z,989.53
2019-04-27T11:54:33.607Z,989.57
2019-04-27T11:55:33.632Z,989.57
2019-04-27T11:56:33.712Z,989.59
2019-04-27T11:57:33.586Z,989.55
2019-04-27T11:58:34.944Z,989.69
2019-04-27T11:59:33.545Z,989.71
2019-04-27T12:00:33.535Z,989.83
2019-04-27T12:01:33.775Z,989.82
2019-04-27T12:02:33.522Z,990.00
2019-04-27T12:03:33.519Z,990.01
2019-04-27T12:04:33.475Z,989.94
2019-04-27T12:05:33.532Z,989.95
2019-04-27T12:06:35.445Z,990.01
2019-04-27T12:07:33.448Z,990.04
2019-04-27T12:08:33.467Z,990.11
2019-04-27T12:09:33.445Z,990.07
2019-04-27T12:10:33.464Z,990.07
2019-04-27T12:11:33.934Z,990.13
2019-04-27T12:12:33.434Z,990.00
2019-04-27T12:13:33.412Z,989.98
2019-04-27T12:14:33.383Z,990.06
2019-04-27T12:15:33.361Z,990.16
2019-04-27T12:16:33.884Z,990.14
2019-04-27T12:17:33.385Z,990.11
2019-04-27T12:18:33.358Z,990.12
2019-04-27T12:19:33.331Z,990.13
2019-04-27T12:20:33.326Z,990.20
2019-04-27T12:21:33.375Z,990.12
2019-04-27T12:22:33.329Z,990.09
2019-04-27T12:23:37.081Z,990.04
2019-04-27T12:24:35.610Z,990.06
2019-04-27T12:25:33.245Z,989.97
2019-04-27T12:26:33.454Z,990.10
2019-04-27T12:27:33.277Z,990.05
2019-04-27T12:28:33.228Z,990.00